OMRK

Ras Al Khaimah International Airport

Ras Al Khaimah, United Arab Emirates
TAF OMRK 181703Z 1818/2000 19005KT CAVOK BECMG 1905/1907 28016KT PROB30 1908/1913 4000 BLDU
Issued Valid From Valid To
Jan-18 @ 17:03 UTC
(3 hours ago)
Jan-18 @ 18:00 UTC
(2 hours ago)
Jan-20 @ 00:00 UTC
(-1 days ago)
Jan-18 @ 18:00 to Jan-19 @ 05:00
TAF OMRK 181703Z 1818/2000 19005KT CAVOK
Wind Visibility Clouds Conditions
190° at 5 knots 10,000+ meters
  • No significant clouds
Becoming Jan-19 @ 05:00 to Jan-20 @ 00:00
BECMG 1905/1907 28016KT
Wind Visibility Clouds Conditions
280° at 16 knots 10,000+ meters
  • No significant clouds
Probable  (Probability 30%) Jan-19 @ 08:00 to Jan-19 @ 13:00
PROB30 1908/1913 4000 BLDU
Visibility Conditions
4,007 meters
  • Blowing
  • Dust
TAF OMRK 181703Z 1818/2000 19005KT CAVOK BECMG 1905/1907 28016KT PROB30 1908/1913 4000 BLDU
Issued Jan-18 @ 17:03 UTC
(3 hours ago)
Valid From Jan-18 @ 18:00 UTC
(2 hours ago)
Valid To Jan-20 @ 00:00 UTC
(-1 days ago)
Jan-18 @ 18:00 - Jan-19 @ 05:00
Wind Visibility
190° at 5 knots 10,000+ meters
Clouds
  • No significant clouds
Conditions
Becoming Jan-19 @ 05:00 - Jan-20 @ 00:00
Wind Visibility
280° at 16 knots 10,000+ meters
Clouds
  • No significant clouds
Conditions
Probability 30% Probable Jan-19 @ 08:00 - Jan-19 @ 13:00
Conditions
  • Blowing
  • Dust